Terminal Aerodrome Forecast
Issued by NWS

Home | Current Version | Previous Version | Graphics & Text | Print | Product List | Glossary On
Versions: 1 2 3 4 5 6 7 8 9 10 11 12 13 14 15 16 17 18
000
FTUS43 KGRB 270520
TAFRHI
TAF
KRHI 270520Z 2706/2806 20003KT P6SM SCT005 BKN250
      TEMPO 2708/2712 3SM BR
     FM271400 12006KT P6SM SCT025 BKN040
     FM271700 14006KT P6SM SCT020 BKN050
      TEMPO 2721/2801 3SM TSRA BKN020CB
     FM280100 13004KT 3SM -SHRA BR SCT009 BKN020
      TEMPO 2802/2806 2SM -SHRA BR BKN009=

USA.gov is the U.S. government's official web portal to all federal, state and local government web resources and services.